WIDD/BTH METAR and TAF weather

Enter ICAO airport designator
Station Type Date Time Source
WIDD METAR 2022/06/26 07:00 UTC NOAA

WIDD 260700Z 22009KT 9999 FEW013CB SCT014 31/25 Q1009 NOSIG RMK CB TO E AND W


Station Type Date Time Source
WIDD Decoded METAR 2022/06/26 07:00 UTC NOAA

Station name not available
Jun 26, 2022 - 03:00 AM EDT / 2022.06.26 0700 UTC
Wind: from the SW (220 degrees) at 10 MPH (9 KT):0
Visibility: greater than 7 mile(s):0
Sky conditions: partly cloudy
Weather: Cumulonimbus clouds observed
Temperature: 87 F (31 C)
Heat index: 97.5 F (36.4 C):1
Dew Point: 77 F (25 C)
Relative Humidity: 70%
Pressure (altimeter): 29.80 in. Hg (1009 hPa)
ob: WIDD 260700Z 22009KT 9999 FEW013CB SCT014 31/25 Q1009 NOSIG RMK CB TO E AND W
cycle: 7

Station Type Date Time Source
WIDD TAF 2022/06/26 06:00 UTC NOAA

TAF WIDD 260500Z 2606/2706 14010KT 9999 FEW014=

Example: see airport list